METAR

Station
VRMM
METAR VRMM 070600Z 26005KT 9999 SCT018TCU BKN280 33/27 Q1010 NOSIG=
VRMH
METAR VRMH 070600Z 10008KT 9000 -TSRA SCT017 FEW018CB 28/26 Q1011 RETS CB N,SSE,W=
VRMK
METAR VRMK 070600Z VRB02KT 9999 FEW018TCU SCT270 32/27 Q1011=
VRMT
METAR VRMT 070600Z 29008KT 9999 FEW018 FEW019CB BKN270 31/26 Q1010 CB N,SW=
VRMG
METAR VRMG 070600Z 27006KT 9999 FEW018 FEW019CB BKN260 32/25 Q1010 CB W,NW NOSIG=
Last Updated : 2021-05-07 11:00:15

SPECI

Station
VRMM
VRMH
SPECI VRMH 070513Z 14005KT 9999 TS SCT017 FEW018CB BKN260 32/26 Q1011 CB SE,S=
VRMK
VRMT
VRMG
Last Updated : 2021-05-07 11:00:15